Time;durP1;ratioP1;P1;durP2;ratioP2;P2;SDS_P1;SDS_P2;PMS_P1;PMS_P2;Temp;Humidity;BMP_temperature;BMP_pressure;BME280_temperature;BME280_humidity;BME280_pressure;Samples;Min_cycle;Max_cycle;Signal;HPM_P1;HPM_P2
2024/04/18 00:02:01;;;;;;;77.53;73.13;;;;;;;;;;5521370;25;20476;-77
2024/04/18 00:04:28;;;;;;;75.53;71.33;;;;;;;;;;5521159;25;20522;-76
2024/04/18 00:06:59;;;;;;;76.30;72.10;;;;;;;;;;5521691;25;20512;-76
2024/04/18 00:09:25;;;;;;;78.53;73.93;;;;;;;;;;5520433;25;20529;-77
2024/04/18 00:11:54;;;;;;;80.60;75.70;;;;;;;;;;5521313;25;20484;-78
2024/04/18 00:14:20;;;;;;;82.17;77.27;;;;;;;;;;5521332;26;21002;-76
2024/04/18 00:16:48;;;;;;;81.13;76.43;;;;;;;;;;5520002;25;20476;-76
2024/04/18 00:19:14;;;;;;;83.20;78.60;;;;;;;;;;5520311;26;20436;-77
2024/04/18 00:21:43;;;;;;;81.93;77.33;;;;;;;;;;5520999;25;20506;-77
2024/04/18 00:24:12;;;;;;;82.60;77.87;;;;;;;;;;5483600;26;20465;-77
2024/04/18 00:26:41;;;;;;;80.57;75.90;;;;;;;;;;5484211;26;20482;-76
2024/04/18 00:29:07;;;;;;;86.07;80.90;;;;;;;;;;5483529;26;20956;-76
2024/04/18 00:31:36;;;;;;;79.23;74.40;;;;;;;;;;5484043;26;20880;-77
2024/04/18 00:34:02;;;;;;;83.83;79.10;;;;;;;;;;5484822;26;20458;-77
2024/04/18 00:36:30;;;;;;;75.07;70.50;;;;;;;;;;5485296;26;20477;-76
2024/04/18 00:38:57;;;;;;;76.40;71.90;;;;;;;;;;5487208;26;20438;-77
2024/04/18 00:41:28;;;;;;;71.87;67.60;;;;;;;;;;5509173;25;20493;-76
2024/04/18 00:43:54;;;;;;;69.78;65.78;;;;;;;;;;5525172;26;20443;-76
2024/04/18 00:46:26;;;;;;;73.63;69.43;;;;;;;;;;5525406;26;20217;-76
2024/04/18 00:48:52;;;;;;;71.67;67.47;;;;;;;;;;5486887;26;20548;-76
2024/04/18 00:51:21;;;;;;;68.80;64.70;;;;;;;;;;5487278;26;20483;-76
2024/04/18 00:53:47;;;;;;;71.40;67.30;;;;;;;;;;5487129;26;21037;-76
2024/04/18 00:56:16;;;;;;;68.10;64.10;;;;;;;;;;5487336;26;20994;-75
2024/04/18 00:58:45;;;;;;;65.30;61.53;;;;;;;;;;5486771;26;20514;-76
2024/04/18 01:01:13;;;;;;;64.53;60.63;;;;;;;;;;5487293;26;20572;-76
2024/04/18 01:03:40;;;;;;;64.10;60.20;;;;;;;;;;5487642;26;20509;-76
2024/04/18 01:06:09;;;;;;;65.87;61.80;;;;;;;;;;5489810;26;21025;-76
2024/04/18 01:08:35;;;;;;;68.90;64.70;;;;;;;;;;5523179;26;20462;-77
2024/04/18 01:11:06;;;;;;;67.17;63.13;;;;;;;;;;5523706;25;20463;-76
2024/04/18 01:13:35;;;;;;;72.60;68.00;;;;;;;;;;5523978;25;20463;-75
2024/04/18 01:16:07;;;;;;;64.90;61.00;;;;;;;;;;5523983;25;20460;-75
2024/04/18 01:18:33;;;;;;;65.60;61.70;;;;;;;;;;5522980;25;20988;-74
2024/04/18 01:21:03;;;;;;;67.30;63.10;;;;;;;;;;5523849;25;20425;-77
2024/04/18 01:23:29;;;;;;;68.20;64.00;;;;;;;;;;5524514;25;20516;-76
2024/04/18 01:25:58;;;;;;;68.17;64.20;;;;;;;;;;5523585;25;20465;-75
2024/04/18 01:28:27;;;;;;;72.67;68.57;;;;;;;;;;5522824;25;20569;-75
2024/04/18 01:30:55;;;;;;;68.80;64.90;;;;;;;;;;5523762;25;20462;-76
2024/04/18 01:33:22;;;;;;;65.83;61.93;;;;;;;;;;5523767;25;20525;-75
2024/04/18 01:35:51;;;;;;;68.53;64.63;;;;;;;;;;5524031;25;21294;-75
2024/04/18 01:38:17;;;;;;;64.03;60.30;;;;;;;;;;5523165;25;20663;-76
2024/04/18 01:40:46;;;;;;;67.37;63.47;;;;;;;;;;5523797;25;21229;-76
2024/04/18 01:43:12;;;;;;;64.70;60.63;;;;;;;;;;5523179;25;20783;-76
2024/04/18 01:45:43;;;;;;;68.43;64.25;;;;;;;;;;5523310;25;20461;-76
2024/04/18 01:48:09;;;;;;;65.47;61.70;;;;;;;;;;5521934;25;20271;-76
2024/04/18 01:50:38;;;;;;;62.75;58.85;;;;;;;;;;5522683;25;20488;-75
2024/04/18 01:53:04;;;;;;;68.30;64.37;;;;;;;;;;5522962;25;20234;-76
2024/04/18 01:55:33;;;;;;;70.03;65.63;;;;;;;;;;5520991;25;20521;-76
2024/04/18 01:57:59;;;;;;;69.60;65.40;;;;;;;;;;5522762;25;20514;-76
2024/04/18 02:00:28;;;;;;;67.63;63.30;;;;;;;;;;5523179;25;20497;-76
2024/04/18 02:02:57;;;;;;;70.17;65.53;;;;;;;;;;5522132;25;20921;-75
2024/04/18 02:05:25;;;;;;;72.97;68.50;;;;;;;;;;5522653;25;20478;-76
2024/04/18 02:07:52;;;;;;;75.80;70.83;;;;;;;;;;5523429;25;20454;-75
2024/04/18 02:10:21;;;;;;;70.70;66.43;;;;;;;;;;5522738;25;20880;-75
2024/04/18 02:12:47;;;;;;;66.10;61.80;;;;;;;;;;5522210;25;20469;-75
2024/04/18 02:15:16;;;;;;;67.30;62.70;;;;;;;;;;5523087;25;21002;-75
2024/04/18 02:17:42;;;;;;;66.25;62.22;;;;;;;;;;5522871;25;20509;-75
2024/04/18 02:20:14;;;;;;;67.63;62.77;;;;;;;;;;5522123;25;20321;-75
2024/04/18 02:22:41;;;;;;;65.87;61.70;;;;;;;;;;5523016;25;20502;-75
2024/04/18 02:25:11;;;;;;;68.20;63.80;;;;;;;;;;5521950;25;20845;-75
2024/04/18 02:27:37;;;;;;;71.63;67.10;;;;;;;;;;5522604;25;20592;-76
2024/04/18 02:30:07;;;;;;;72.57;67.70;;;;;;;;;;5522116;25;20519;-75
2024/04/18 02:32:33;;;;;;;67.60;63.00;;;;;;;;;;5522561;25;21171;-75
2024/04/18 02:35:02;;;;;;;67.73;63.37;;;;;;;;;;5522606;25;20570;-76
2024/04/18 02:37:32;;;;;;;67.53;62.83;;;;;;;;;;5522613;25;20464;-75
2024/04/18 02:40:01;;;;;;;67.87;62.63;;;;;;;;;;5519445;26;20505;-76
2024/04/18 02:42:27;;;;;;;68.00;63.23;;;;;;;;;;5522484;25;20445;-76
2024/04/18 02:44:56;;;;;;;66.20;61.70;;;;;;;;;;5522429;25;21051;-75
2024/04/18 02:47:22;;;;;;;65.60;61.40;;;;;;;;;;5522785;25;20769;-76
2024/04/18 02:49:50;;;;;;;67.13;62.50;;;;;;;;;;5522340;25;20574;-75
2024/04/18 02:52:16;;;;;;;64.80;60.00;;;;;;;;;;5522162;25;20550;-75
2024/04/18 02:54:48;;;;;;;65.23;61.17;;;;;;;;;;5522602;25;20442;-75
2024/04/18 02:57:14;;;;;;;65.60;60.90;;;;;;;;;;5520740;26;21205;-75
2024/04/18 02:59:42;;;;;;;64.53;59.90;;;;;;;;;;5521048;25;21004;-74
2024/04/18 03:02:08;;;;;;;63.63;59.20;;;;;;;;;;5521713;25;20473;-75
2024/04/18 03:04:38;;;;;;;66.57;61.87;;;;;;;;;;5522669;25;20522;-75
2024/04/18 03:07:04;;;;;;;65.17;60.50;;;;;;;;;;5521934;25;20521;-75
2024/04/18 03:09:33;;;;;;;70.93;65.60;;;;;;;;;;5521737;26;20520;-75
2024/04/18 03:12:01;;;;;;;67.53;63.10;;;;;;;;;;5522271;25;20477;-75
2024/04/18 03:14:30;;;;;;;66.13;61.57;;;;;;;;;;5521800;25;20590;-75
2024/04/18 03:16:56;;;;;;;67.27;62.47;;;;;;;;;;5522048;26;20579;-75
2024/04/18 03:19:25;;;;;;;64.80;60.13;;;;;;;;;;5521124;26;21160;-74
2024/04/18 03:21:51;;;;;;;68.20;63.33;;;;;;;;;;5521791;25;20462;-76
2024/04/18 03:24:21;;;;;;;63.13;57.87;;;;;;;;;;5520749;25;20598;-75
2024/04/18 03:26:47;;;;;;;64.27;59.63;;;;;;;;;;5521535;26;20453;-76
2024/04/18 03:29:19;;;;;;;68.77;63.43;;;;;;;;;;5521019;26;21054;-76
2024/04/18 03:31:48;;;;;;;67.70;62.60;;;;;;;;;;5518285;26;20460;-76
2024/04/18 03:34:18;;;;;;;67.83;63.33;;;;;;;;;;5484377;26;20873;-75
2024/04/18 03:36:49;;;;;;;64.77;59.97;;;;;;;;;;5484609;26;20440;-76
2024/04/18 03:39:18;;;;;;;67.50;62.03;;;;;;;;;;5484772;26;20455;-75
2024/04/18 03:41:49;;;;;;;66.00;60.90;;;;;;;;;;5484296;26;20455;-76
2024/04/18 03:44:20;;;;;;;53.93;49.40;;;;;;;;;;5484577;26;20583;-75
2024/04/18 03:46:46;;;;;;;54.27;49.90;;;;;;;;;;5484697;26;20947;-75
2024/04/18 03:49:14;;;;;;;54.57;50.20;;;;;;;;;;5483828;26;21021;-77
2024/04/18 03:51:40;;;;;;;55.87;50.60;;;;;;;;;;5484366;26;20471;-75
2024/04/18 03:54:09;;;;;;;54.07;49.00;;;;;;;;;;5484462;26;20498;-76
2024/04/18 03:56:36;;;;;;;50.80;46.60;;;;;;;;;;5484103;26;20547;-76
2024/04/18 03:59:05;;;;;;;57.00;51.80;;;;;;;;;;5483462;26;20531;-76
2024/04/18 04:01:36;;;;;;;49.73;45.73;;;;;;;;;;5493456;25;20249;-76
2024/04/18 04:04:04;;;;;;;52.27;47.70;;;;;;;;;;5521019;26;20446;-75
2024/04/18 04:06:30;;;;;;;50.83;46.43;;;;;;;;;;5520651;26;21523;-75
2024/04/18 04:08:59;;;;;;;54.30;49.50;;;;;;;;;;5520245;26;20454;-75
2024/04/18 04:11:30;;;;;;;57.67;51.97;;;;;;;;;;5520464;25;20461;-76
2024/04/18 04:13:56;;;;;;;53.40;48.47;;;;;;;;;;5524667;25;20450;-76
2024/04/18 04:16:25;;;;;;;54.40;49.70;;;;;;;;;;5517319;25;21013;-76
2024/04/18 04:18:55;;;;;;;51.53;46.97;;;;;;;;;;5486826;26;20414;-75
2024/04/18 04:21:24;;;;;;;54.03;48.87;;;;;;;;;;5487186;26;20455;-76
2024/04/18 04:23:50;;;;;;;54.43;48.93;;;;;;;;;;5487229;26;20486;-76
2024/04/18 04:26:19;;;;;;;53.10;48.40;;;;;;;;;;5487502;26;20522;-75
2024/04/18 04:28:46;;;;;;;54.57;50.17;;;;;;;;;;5486701;26;20521;-75
2024/04/18 04:31:14;;;;;;;55.77;50.80;;;;;;;;;;5487348;26;20461;-74
2024/04/18 04:33:41;;;;;;;55.50;50.63;;;;;;;;;;5487415;26;20533;-75
2024/04/18 04:36:14;;;;;;;54.80;49.67;;;;;;;;;;5487440;26;20828;-75
2024/04/18 04:38:41;;;;;;;54.33;49.60;;;;;;;;;;5486010;26;20438;-76
2024/04/18 04:41:09;;;;;;;56.27;51.17;;;;;;;;;;5486108;26;20463;-75
2024/04/18 04:43:38;;;;;;;54.13;48.60;;;;;;;;;;5487125;26;20468;-76
2024/04/18 04:46:07;;;;;;;53.33;48.60;;;;;;;;;;5491834;26;20835;-75
2024/04/18 04:48:33;;;;;;;52.93;48.30;;;;;;;;;;5491177;25;20518;-75
2024/04/18 04:51:04;;;;;;;52.63;48.03;;;;;;;;;;5487509;26;20474;-76
2024/04/18 04:53:33;;;;;;;53.17;48.07;;;;;;;;;;5486978;26;20605;-76
2024/04/18 04:56:04;;;;;;;52.07;47.80;;;;;;;;;;5487516;26;20808;-75
2024/04/18 04:58:33;;;;;;;53.30;48.60;;;;;;;;;;5487001;26;20535;-74
2024/04/18 05:00:59;;;;;;;52.73;48.33;;;;;;;;;;5486698;26;20470;-76
2024/04/18 05:03:28;;;;;;;51.53;46.97;;;;;;;;;;5486814;26;20461;-74
2024/04/18 05:05:54;;;;;;;49.53;45.40;;;;;;;;;;5486852;26;21055;-76
2024/04/18 05:08:22;;;;;;;50.27;45.43;;;;;;;;;;5486389;26;21285;-76
2024/04/18 05:10:51;;;;;;;49.97;45.17;;;;;;;;;;5502743;26;21366;-75
2024/04/18 05:13:20;;;;;;;52.27;47.87;;;;;;;;;;5523688;26;20461;-76
2024/04/18 05:15:46;;;;;;;48.60;43.83;;;;;;;;;;5522385;26;20461;-77
2024/04/18 05:18:15;;;;;;;48.10;44.20;;;;;;;;;;5522026;25;20480;-75
2024/04/18 05:20:41;;;;;;;51.07;46.47;;;;;;;;;;5523752;25;20517;-75
2024/04/18 05:23:10;;;;;;;48.57;44.40;;;;;;;;;;5522226;25;20452;-74
2024/04/18 05:25:36;;;;;;;45.60;41.27;;;;;;;;;;5523446;25;20456;-75
2024/04/18 05:28:19;;;;;;;46.73;42.33;;;;;;;;;;5523383;25;20525;-74
2024/04/18 05:31:01;;;;;;;45.57;41.73;;;;;;;;;;5523685;25;20608;-75
2024/04/18 05:33:29;;;;;;;47.03;42.73;;;;;;;;;;5523841;25;20845;-76
2024/04/18 05:35:56;;;;;;;45.27;41.10;;;;;;;;;;5523205;25;20465;-76
2024/04/18 05:38:26;;;;;;;45.33;41.30;;;;;;;;;;5522984;25;20464;-76
2024/04/18 05:40:55;;;;;;;44.38;39.78;;;;;;;;;;5523097;25;21031;-75
2024/04/18 05:43:26;;;;;;;46.43;41.83;;;;;;;;;;5523349;25;20236;-75
2024/04/18 05:45:55;;;;;;;45.37;41.50;;;;;;;;;;5523385;26;20492;-75
2024/04/18 05:48:24;;;;;;;46.07;41.87;;;;;;;;;;5522776;25;20441;-75
2024/04/18 05:50:52;;;;;;;45.63;41.33;;;;;;;;;;5523631;25;20792;-75
2024/04/18 05:53:21;;;;;;;42.85;38.95;;;;;;;;;;5523316;26;20229;-75
2024/04/18 05:55:50;;;;;;;41.53;37.93;;;;;;;;;;5523008;26;20228;-75
2024/04/18 05:58:21;;;;;;;42.27;38.37;;;;;;;;;;5522125;26;20791;-75
2024/04/18 06:00:52;;;;;;;39.67;36.33;;;;;;;;;;5522240;25;21000;-74
2024/04/18 06:03:21;;;;;;;38.37;35.27;;;;;;;;;;5522131;26;20494;-76
2024/04/18 06:05:50;;;;;;;41.10;37.00;;;;;;;;;;5522339;26;20494;-74
2024/04/18 06:08:19;;;;;;;38.70;35.20;;;;;;;;;;5521234;26;20778;-74
2024/04/18 06:10:47;;;;;;;39.57;35.87;;;;;;;;;;5522419;26;20437;-75
2024/04/18 06:13:16;;;;;;;38.97;35.10;;;;;;;;;;5521824;25;20458;-75
2024/04/18 06:15:46;;;;;;;39.63;36.23;;;;;;;;;;5522184;26;20448;-76
2024/04/18 06:18:17;;;;;;;35.57;32.53;;;;;;;;;;5521096;26;20798;-74
2024/04/18 06:20:47;;;;;;;34.97;32.30;;;;;;;;;;5522283;26;20513;-76
2024/04/18 06:23:16;;;;;;;37.03;33.80;;;;;;;;;;5521640;25;20549;-75
2024/04/18 06:25:45;;;;;;;35.77;32.90;;;;;;;;;;5522410;26;20501;-75
2024/04/18 06:28:14;;;;;;;34.40;31.60;;;;;;;;;;5521865;26;20457;-75
2024/04/18 06:30:43;;;;;;;37.20;33.93;;;;;;;;;;5521789;26;20498;-75
2024/04/18 06:33:12;;;;;;;32.17;29.57;;;;;;;;;;5521630;25;20541;-75
2024/04/18 06:35:44;;;;;;;34.20;31.50;;;;;;;;;;5521576;25;20452;-75
2024/04/18 06:38:13;;;;;;;34.67;31.87;;;;;;;;;;5521072;26;20867;-76
2024/04/18 06:40:41;;;;;;;33.50;30.57;;;;;;;;;;5521260;26;20457;-76
2024/04/18 06:43:10;;;;;;;32.40;29.67;;;;;;;;;;5521012;25;20483;-74
2024/04/18 06:45:39;;;;;;;33.37;30.40;;;;;;;;;;5521525;25;20464;-75
2024/04/18 06:48:10;;;;;;;32.00;29.50;;;;;;;;;;5491365;25;20527;-77
2024/04/18 06:50:38;;;;;;;31.70;28.83;;;;;;;;;;5484857;26;20474;-75
2024/04/18 06:53:10;;;;;;;32.07;29.67;;;;;;;;;;5485074;26;20466;-74
2024/04/18 06:55:36;;;;;;;31.70;29.00;;;;;;;;;;5502061;26;20469;-75
2024/04/18 06:58:04;;;;;;;32.10;29.47;;;;;;;;;;5521846;26;20442;-75
2024/04/18 07:00:33;;;;;;;31.20;28.33;;;;;;;;;;5521652;26;21019;-75
2024/04/18 07:03:03;;;;;;;31.10;28.70;;;;;;;;;;5520677;25;20529;-75
2024/04/18 07:05:31;;;;;;;30.43;27.93;;;;;;;;;;5521540;26;20501;-76
2024/04/18 07:08:00;;;;;;;30.53;28.17;;;;;;;;;;5514148;26;20505;-76
2024/04/18 07:10:31;;;;;;;29.87;27.40;;;;;;;;;;5484071;26;20436;-74
2024/04/18 07:13:00;;;;;;;29.67;27.20;;;;;;;;;;5518306;26;20544;-76
2024/04/18 07:15:28;;;;;;;31.17;28.70;;;;;;;;;;5521491;25;20555;-76
2024/04/18 07:17:57;;;;;;;31.57;28.83;;;;;;;;;;5506557;26;20483;-75
2024/04/18 07:20:27;;;;;;;30.77;28.50;;;;;;;;;;5510699;25;20528;-75
2024/04/18 07:22:55;;;;;;;30.03;27.47;;;;;;;;;;5512460;25;20471;-74
2024/04/18 07:25:25;;;;;;;29.80;27.70;;;;;;;;;;5515594;25;20471;-74
2024/04/18 07:27:57;;;;;;;28.53;26.30;;;;;;;;;;5513468;25;20502;-75
2024/04/18 07:30:39;;;;;;;30.03;27.60;;;;;;;;;;5518005;25;20612;-75
2024/04/18 07:33:09;;;;;;;27.10;25.13;;;;;;;;;;5511967;25;20494;-74
2024/04/18 07:35:39;;;;;;;29.20;26.70;;;;;;;;;;5484960;26;20466;-76
2024/04/18 07:38:13;;;;;;;28.33;26.13;;;;;;;;;;5481763;26;21014;-75
2024/04/18 07:40:44;;;;;;;28.00;26.17;;;;;;;;;;5484515;26;20447;-75
2024/04/18 07:43:15;;;;;;;28.23;25.90;;;;;;;;;;5484593;26;20804;-76
2024/04/18 07:45:45;;;;;;;28.00;25.87;;;;;;;;;;5511897;25;20478;-75
2024/04/18 07:48:15;;;;;;;28.83;26.47;;;;;;;;;;5523931;25;20486;-76
2024/04/18 07:50:45;;;;;;;27.47;25.07;;;;;;;;;;5525242;25;20434;-75
2024/04/18 07:53:13;;;;;;;27.70;25.63;;;;;;;;;;5525057;25;20473;-75
2024/04/18 07:55:44;;;;;;;26.03;24.33;;;;;;;;;;5525162;25;20523;-75
2024/04/18 07:58:16;;;;;;;26.50;24.60;;;;;;;;;;5525101;25;20999;-75
2024/04/18 08:00:45;;;;;;;27.00;24.80;;;;;;;;;;5524764;25;20587;-75
2024/04/18 08:03:15;;;;;;;26.80;24.83;;;;;;;;;;5524421;25;20497;-76
2024/04/18 08:05:48;;;;;;;26.53;24.50;;;;;;;;;;5524787;25;20542;-75
2024/04/18 08:08:20;;;;;;;25.90;24.13;;;;;;;;;;5523876;25;20523;-75
2024/04/18 08:10:48;;;;;;;26.13;24.23;;;;;;;;;;5524007;25;20465;-74
2024/04/18 08:13:22;;;;;;;26.67;24.87;;;;;;;;;;5523886;25;21028;-74
2024/04/18 08:15:51;;;;;;;28.90;26.70;;;;;;;;;;5524666;25;20509;-76
2024/04/18 08:18:21;;;;;;;26.53;24.60;;;;;;;;;;5523673;25;20514;-76
2024/04/18 08:20:50;;;;;;;24.57;22.93;;;;;;;;;;5488909;25;20897;-75
2024/04/18 08:23:21;;;;;;;25.53;23.73;;;;;;;;;;5487793;26;20445;-76
2024/04/18 08:25:52;;;;;;;25.37;23.70;;;;;;;;;;5487806;26;20759;-75
2024/04/18 08:28:24;;;;;;;26.37;24.37;;;;;;;;;;5486703;26;20456;-75
2024/04/18 08:30:54;;;;;;;25.00;23.40;;;;;;;;;;5487656;26;20447;-75
2024/04/18 08:33:23;;;;;;;25.53;23.93;;;;;;;;;;5487517;26;20444;-75
2024/04/18 08:35:51;;;;;;;25.50;23.90;;;;;;;;;;5487174;26;20464;-75
2024/04/18 08:38:20;;;;;;;26.37;24.67;;;;;;;;;;5486569;26;21155;-75
2024/04/18 08:40:52;;;;;;;25.53;23.80;;;;;;;;;;5487118;26;20588;-74
2024/04/18 08:43:24;;;;;;;26.97;25.20;;;;;;;;;;5486310;26;20992;-76
2024/04/18 08:45:54;;;;;;;27.00;25.07;;;;;;;;;;5494591;26;20588;-75
2024/04/18 08:48:24;;;;;;;25.73;23.83;;;;;;;;;;5486422;26;20581;-75
2024/04/18 08:50:53;;;;;;;26.43;24.63;;;;;;;;;;5487216;26;20530;-75
2024/04/18 08:53:22;;;;;;;24.47;22.57;;;;;;;;;;5487588;26;20464;-76
2024/04/18 08:55:51;;;;;;;24.73;23.03;;;;;;;;;;5522528;26;20523;-74
2024/04/18 08:58:20;;;;;;;25.60;23.70;;;;;;;;;;5521377;25;20434;-75
2024/04/18 09:00:52;;;;;;;25.10;23.33;;;;;;;;;;5523440;25;20435;-74
2024/04/18 09:03:21;;;;;;;25.87;24.07;;;;;;;;;;5521483;25;21435;-75
2024/04/18 09:05:50;;;;;;;25.33;23.50;;;;;;;;;;5523179;26;20866;-76
2024/04/18 09:08:21;;;;;;;24.57;22.97;;;;;;;;;;5522933;26;21139;-75
2024/04/18 09:10:50;;;;;;;25.47;23.77;;;;;;;;;;5523102;26;20508;-75
2024/04/18 09:13:21;;;;;;;24.90;23.17;;;;;;;;;;5501152;26;20863;-75
2024/04/18 09:15:53;;;;;;;26.27;24.47;;;;;;;;;;5487609;26;20773;-74
2024/04/18 09:18:26;;;;;;;24.03;22.40;;;;;;;;;;5516929;25;20547;-76
2024/04/18 09:20:55;;;;;;;26.77;25.13;;;;;;;;;;5522383;25;20481;-75
2024/04/18 09:23:24;;;;;;;27.20;25.50;;;;;;;;;;5521628;26;20446;-75
2024/04/18 09:25:57;;;;;;;26.83;25.23;;;;;;;;;;5522455;26;20450;-76
2024/04/18 09:28:23;;;;;;;25.90;24.43;;;;;;;;;;5522800;26;20802;-75
2024/04/18 09:30:55;;;;;;;24.63;22.77;;;;;;;;;;5523185;26;20588;-75
2024/04/18 09:33:25;;;;;;;22.90;21.50;;;;;;;;;;5522937;25;20458;-75
2024/04/18 09:35:58;;;;;;;25.70;23.70;;;;;;;;;;5490294;25;20552;-76
2024/04/18 09:38:28;;;;;;;24.93;23.23;;;;;;;;;;5483751;26;20900;-75
2024/04/18 09:41:00;;;;;;;25.47;23.77;;;;;;;;;;5490850;26;20450;-75
2024/04/18 09:43:33;;;;;;;24.80;23.30;;;;;;;;;;5499474;26;20451;-75
2024/04/18 09:46:07;;;;;;;23.40;22.00;;;;;;;;;;5516803;26;20455;-75
2024/04/18 09:48:36;;;;;;;22.47;21.07;;;;;;;;;;5485459;26;20501;-75
2024/04/18 09:51:05;;;;;;;23.20;21.80;;;;;;;;;;5484089;26;20453;-74
2024/04/18 09:53:34;;;;;;;24.03;22.50;;;;;;;;;;5506728;25;20542;-74
2024/04/18 09:56:03;;;;;;;24.00;22.83;;;;;;;;;;5522164;26;20434;-76
2024/04/18 09:58:32;;;;;;;24.60;23.50;;;;;;;;;;5522521;25;20998;-75
2024/04/18 10:01:00;;;;;;;24.43;22.67;;;;;;;;;;5522546;25;21226;-75
2024/04/18 10:03:32;;;;;;;23.70;22.40;;;;;;;;;;5521812;25;20530;-75
2024/04/18 10:06:02;;;;;;;24.00;22.50;;;;;;;;;;5521235;26;20482;-75
2024/04/18 10:08:32;;;;;;;24.27;23.00;;;;;;;;;;5510197;26;20440;-75
2024/04/18 10:11:01;;;;;;;22.83;21.73;;;;;;;;;;5519885;25;20431;-75
2024/04/18 10:13:32;;;;;;;22.90;21.80;;;;;;;;;;5527198;25;20461;-80
2024/04/18 10:16:09;;;;;;;24.37;23.10;;;;;;;;;;5521727;25;20461;-75
2024/04/18 10:18:44;;;;;;;24.00;22.60;;;;;;;;;;5514661;26;21037;-74
2024/04/18 10:21:15;;;;;;;23.10;22.00;;;;;;;;;;5509978;25;20482;-80
2024/04/18 10:23:50;;;;;;;24.40;23.07;;;;;;;;;;5520510;26;20471;-76
2024/04/18 10:26:19;;;;;;;23.03;21.63;;;;;;;;;;5522174;25;20478;-74
2024/04/18 10:28:49;;;;;;;21.93;20.73;;;;;;;;;;5520450;26;20447;-77
2024/04/18 10:31:18;;;;;;;23.27;21.43;;;;;;;;;;5524285;25;20438;-80
2024/04/18 10:33:53;;;;;;;22.93;21.73;;;;;;;;;;5525325;26;20462;-80
2024/04/18 10:36:22;;;;;;;23.27;21.97;;;;;;;;;;5525797;26;20539;-80
2024/04/18 10:38:51;;;;;;;23.60;21.90;;;;;;;;;;5524438;26;20485;-77
2024/04/18 10:41:20;;;;;;;22.70;21.50;;;;;;;;;;5523728;25;20463;-77
2024/04/18 10:43:49;;;;;;;19.97;18.77;;;;;;;;;;5523243;26;20827;-76
2024/04/18 10:46:19;;;;;;;20.03;18.73;;;;;;;;;;5521685;25;20442;-75
2024/04/18 10:48:54;;;;;;;20.10;18.70;;;;;;;;;;5520184;26;20439;-75
2024/04/18 10:51:23;;;;;;;19.80;18.50;;;;;;;;;;5521624;25;21058;-75
2024/04/18 10:53:52;;;;;;;19.37;18.13;;;;;;;;;;5521560;26;20507;-75
2024/04/18 10:56:21;;;;;;;19.60;18.23;;;;;;;;;;5513269;25;20486;-74
2024/04/18 10:58:50;;;;;;;19.47;17.93;;;;;;;;;;5520839;25;20495;-75
2024/04/18 11:01:22;;;;;;;19.70;18.50;;;;;;;;;;5521636;25;20511;-74
2024/04/18 11:03:54;;;;;;;21.10;19.60;;;;;;;;;;5520837;25;20463;-74
2024/04/18 11:06:20;;;;;;;19.20;18.10;;;;;;;;;;5520520;26;20482;-75
2024/04/18 11:08:51;;;;;;;19.43;18.33;;;;;;;;;;5517027;25;20558;-76
2024/04/18 11:11:23;;;;;;;21.13;19.83;;;;;;;;;;5520216;25;20600;-75
2024/04/18 11:13:52;;;;;;;20.30;19.10;;;;;;;;;;5520114;26;20447;-75
2024/04/18 11:16:21;;;;;;;20.67;19.50;;;;;;;;;;5519875;26;20495;-74
2024/04/18 11:18:50;;;;;;;21.57;20.23;;;;;;;;;;5514581;25;20483;-74
2024/04/18 11:21:21;;;;;;;20.70;19.40;;;;;;;;;;5520035;25;20826;-77
2024/04/18 11:23:53;;;;;;;18.87;17.73;;;;;;;;;;5508846;26;20439;-74
2024/04/18 11:26:22;;;;;;;19.30;18.00;;;;;;;;;;5485551;26;20457;-75
2024/04/18 11:28:51;;;;;;;21.10;19.87;;;;;;;;;;5503108;26;20519;-76
2024/04/18 11:31:20;;;;;;;20.80;19.60;;;;;;;;;;5521530;25;20916;-75
2024/04/18 11:33:49;;;;;;;21.40;20.10;;;;;;;;;;5521222;25;20455;-76
2024/04/18 11:36:18;;;;;;;21.57;20.13;;;;;;;;;;5521581;25;20443;-78
2024/04/18 11:38:49;;;;;;;22.30;20.40;;;;;;;;;;5501894;25;20464;-76
2024/04/18 11:41:19;;;;;;;23.73;22.30;;;;;;;;;;5504860;25;20467;-75
2024/04/18 11:43:48;;;;;;;24.60;23.00;;;;;;;;;;5505627;26;20467;-77
2024/04/18 11:46:17;;;;;;;26.07;24.00;;;;;;;;;;5521796;25;20585;-76
2024/04/18 11:48:45;;;;;;;25.03;23.23;;;;;;;;;;5515244;25;20439;-76
2024/04/18 11:51:15;;;;;;;26.73;25.00;;;;;;;;;;5520414;25;21013;-76
2024/04/18 11:53:45;;;;;;;24.17;22.50;;;;;;;;;;5510757;26;20882;-74
2024/04/18 11:56:16;;;;;;;24.03;22.50;;;;;;;;;;5520516;25;20477;-74
2024/04/18 11:58:46;;;;;;;24.00;22.40;;;;;;;;;;5519994;26;20916;-76
2024/04/18 12:01:15;;;;;;;24.20;22.70;;;;;;;;;;5521023;25;20522;-75
2024/04/18 12:03:42;;;;;;;23.30;21.80;;;;;;;;;;5520677;26;20797;-76
2024/04/18 12:06:10;;;;;;;22.97;21.50;;;;;;;;;;5522104;26;20501;-76
2024/04/18 12:08:40;;;;;;;22.43;21.00;;;;;;;;;;5521335;26;20455;-76
2024/04/18 12:11:08;;;;;;;23.23;21.10;;;;;;;;;;5520257;25;20832;-75
2024/04/18 12:13:43;;;;;;;21.70;20.50;;;;;;;;;;5520512;26;20459;-75
2024/04/18 12:16:13;;;;;;;21.80;20.60;;;;;;;;;;5509414;25;20462;-75
2024/04/18 12:18:42;;;;;;;21.80;20.50;;;;;;;;;;5519700;26;20503;-75
2024/04/18 12:21:11;;;;;;;21.53;20.20;;;;;;;;;;5520178;25;20533;-75
2024/04/18 12:23:42;;;;;;;23.83;22.17;;;;;;;;;;5519942;25;20463;-75
2024/04/18 12:26:12;;;;;;;23.10;21.10;;;;;;;;;;5520753;26;20435;-75
2024/04/18 12:28:46;;;;;;;22.03;20.30;;;;;;;;;;5513015;26;20446;-75
2024/04/18 12:31:15;;;;;;;22.50;21.00;;;;;;;;;;5517760;25;20566;-76
2024/04/18 12:33:44;;;;;;;22.27;20.70;;;;;;;;;;5519990;25;20470;-75
2024/04/18 12:36:13;;;;;;;22.33;20.67;;;;;;;;;;5523012;25;20897;-80
2024/04/18 12:38:44;;;;;;;25.47;24.00;;;;;;;;;;5513204;26;20485;-76
2024/04/18 12:41:13;;;;;;;25.33;23.83;;;;;;;;;;5499983;25;21034;-76
2024/04/18 12:43:45;;;;;;;24.87;23.67;;;;;;;;;;5523092;25;20443;-74
2024/04/18 12:46:11;;;;;;;23.00;22.00;;;;;;;;;;5522178;26;20507;-75
2024/04/18 12:48:40;;;;;;;24.47;23.30;;;;;;;;;;5522658;25;21474;-76
2024/04/18 12:51:09;;;;;;;20.50;19.30;;;;;;;;;;5490294;26;20472;-74
2024/04/18 12:53:37;;;;;;;21.40;20.20;;;;;;;;;;5512627;26;20471;-75
2024/04/18 12:56:07;;;;;;;20.07;18.87;;;;;;;;;;5523548;25;20439;-76
2024/04/18 12:58:36;;;;;;;19.30;18.10;;;;;;;;;;5523174;25;20511;-75
2024/04/18 13:01:08;;;;;;;20.53;19.10;;;;;;;;;;5515012;25;20996;-76
2024/04/18 13:03:34;;;;;;;18.50;17.30;;;;;;;;;;5519824;25;20463;-75
2024/04/18 13:06:03;;;;;;;20.50;19.10;;;;;;;;;;5523340;25;20474;-75
2024/04/18 13:08:31;;;;;;;20.53;19.23;;;;;;;;;;5503106;25;20448;-76
2024/04/18 13:11:00;;;;;;;20.00;18.60;;;;;;;;;;5522387;25;20461;-76
2024/04/18 13:13:30;;;;;;;21.20;19.80;;;;;;;;;;5520197;25;20467;-75
2024/04/18 13:15:59;;;;;;;20.63;19.23;;;;;;;;;;5505729;26;21002;-75
2024/04/18 13:18:31;;;;;;;19.03;17.73;;;;;;;;;;5522384;25;20439;-76
2024/04/18 13:21:02;;;;;;;17.97;16.47;;;;;;;;;;5522639;25;20538;-74
2024/04/18 13:23:33;;;;;;;19.20;17.70;;;;;;;;;;5523314;25;20519;-75
2024/04/18 13:26:02;;;;;;;18.70;17.40;;;;;;;;;;5515236;25;20589;-76
2024/04/18 13:28:30;;;;;;;21.00;19.30;;;;;;;;;;5522216;25;20521;-76
2024/04/18 13:30:59;;;;;;;18.40;17.00;;;;;;;;;;5522755;25;20463;-76
2024/04/18 13:33:28;;;;;;;18.50;17.10;;;;;;;;;;5522989;26;20423;-75
2024/04/18 13:36:00;;;;;;;18.57;17.17;;;;;;;;;;5522830;26;20463;-76
2024/04/18 13:38:29;;;;;;;17.77;16.47;;;;;;;;;;5522569;25;20513;-75
2024/04/18 13:40:58;;;;;;;18.40;16.93;;;;;;;;;;5523275;25;20458;-76
2024/04/18 13:43:27;;;;;;;17.73;16.40;;;;;;;;;;5523189;25;20459;-75
2024/04/18 13:45:55;;;;;;;17.50;16.10;;;;;;;;;;5485528;25;20867;-75
2024/04/18 13:48:24;;;;;;;18.47;16.97;;;;;;;;;;5487444;26;20488;-75
2024/04/18 13:50:54;;;;;;;18.93;17.43;;;;;;;;;;5495679;25;20514;-75
2024/04/18 13:53:27;;;;;;;18.83;17.23;;;;;;;;;;5485970;26;20436;-75
2024/04/18 13:55:56;;;;;;;18.10;16.70;;;;;;;;;;5485308;26;20570;-75
2024/04/18 13:58:22;;;;;;;18.37;16.93;;;;;;;;;;5519544;26;20447;-75
2024/04/18 14:00:51;;;;;;;17.67;16.27;;;;;;;;;;5522582;25;20467;-76
2024/04/18 14:03:21;;;;;;;17.97;16.30;;;;;;;;;;5507936;26;20441;-77
2024/04/18 14:05:49;;;;;;;17.87;16.57;;;;;;;;;;5484505;26;20460;-75
2024/04/18 14:08:18;;;;;;;17.90;16.50;;;;;;;;;;5484393;26;20532;-76
2024/04/18 14:10:53;;;;;;;18.30;16.97;;;;;;;;;;5485600;26;20441;-75
2024/04/18 14:13:29;;;;;;;18.00;16.60;;;;;;;;;;5493490;26;20451;-75
2024/04/18 14:18:52;;;;;;;16.70;15.60;;;;;;;;;;5506342;25;20526;-76
2024/04/18 14:21:23;;;;;;;17.03;15.73;;;;;;;;;;5502088;25;20459;-76
2024/04/18 14:24:01;;;;;;;17.27;15.87;;;;;;;;;;5514018;26;20515;-76
2024/04/18 14:26:33;;;;;;;17.60;16.30;;;;;;;;;;5521702;26;20495;-75
2024/04/18 14:29:08;;;;;;;17.93;16.70;;;;;;;;;;5522203;25;20427;-75
2024/04/18 14:31:37;;;;;;;17.90;16.60;;;;;;;;;;5523741;25;20459;-75